sensor_id;sensor_type;location;lat;lon;timestamp;P1;durP1;ratioP1;P2;durP2;ratioP2
13090;SDS011;6611;52.604;13.438;2024-03-23T00:55:26;5.97;;;2.70;;
13090;SDS011;6611;52.604;13.438;2024-03-23T01:00:27;14.27;;;3.33;;
13090;SDS011;6611;52.604;13.438;2024-03-23T01:05:31;11.73;;;2.80;;
13090;SDS011;6611;52.604;13.438;2024-03-23T01:10:34;6.87;;;3.13;;
13090;SDS011;6611;52.604;13.438;2024-03-23T01:15:35;7.33;;;2.43;;
13090;SDS011;6611;52.604;13.438;2024-03-23T01:20:37;11.03;;;2.63;;
13090;SDS011;6611;52.604;13.438;2024-03-23T01:25:41;9.33;;;2.70;;
13090;SDS011;6611;52.604;13.438;2024-03-23T01:30:42;9.83;;;2.93;;
13090;SDS011;6611;52.604;13.438;2024-03-23T01:35:44;12.27;;;2.73;;
13090;SDS011;6611;52.604;13.438;2024-03-23T01:40:47;12.33;;;2.97;;
13090;SDS011;6611;52.604;13.438;2024-03-23T01:45:49;9.63;;;2.60;;
13090;SDS011;6611;52.604;13.438;2024-03-23T01:50:53;5.33;;;2.63;;
13090;SDS011;6611;52.604;13.438;2024-03-23T01:55:56;6.67;;;2.03;;
13090;SDS011;6611;52.604;13.438;2024-03-23T02:00:58;10.80;;;2.67;;
13090;SDS011;6611;52.604;13.438;2024-03-23T02:05:59;10.47;;;3.07;;
13090;SDS011;6611;52.604;13.438;2024-03-23T02:11:03;15.77;;;3.93;;
13090;SDS011;6611;52.604;13.438;2024-03-23T02:16:04;10.43;;;3.03;;
13090;SDS011;6611;52.604;13.438;2024-03-23T02:21:06;9.73;;;3.43;;
13090;SDS011;6611;52.604;13.438;2024-03-23T02:26:09;11.50;;;3.50;;
13090;SDS011;6611;52.604;13.438;2024-03-23T02:31:11;13.23;;;3.00;;
13090;SDS011;6611;52.604;13.438;2024-03-23T02:36:13;7.40;;;2.70;;
13090;SDS011;6611;52.604;13.438;2024-03-23T02:41:19;8.53;;;2.80;;
13090;SDS011;6611;52.604;13.438;2024-03-23T02:46:23;12.07;;;3.00;;
13090;SDS011;6611;52.604;13.438;2024-03-23T02:51:24;10.47;;;3.23;;
13090;SDS011;6611;52.604;13.438;2024-03-23T02:56:27;7.50;;;2.90;;
13090;SDS011;6611;52.604;13.438;2024-03-23T03:01:29;11.43;;;2.80;;
13090;SDS011;6611;52.604;13.438;2024-03-23T03:06:31;10.97;;;3.40;;
13090;SDS011;6611;52.604;13.438;2024-03-23T03:11:34;12.43;;;3.30;;
13090;SDS011;6611;52.604;13.438;2024-03-23T03:16:35;12.37;;;3.30;;
13090;SDS011;6611;52.604;13.438;2024-03-23T03:21:37;12.57;;;2.97;;
13090;SDS011;6611;52.604;13.438;2024-03-23T03:26:40;12.03;;;3.10;;
13090;SDS011;6611;52.604;13.438;2024-03-23T03:31:42;7.17;;;3.20;;
13090;SDS011;6611;52.604;13.438;2024-03-23T03:36:46;8.07;;;2.90;;
13090;SDS011;6611;52.604;13.438;2024-03-23T03:41:49;9.70;;;3.43;;
13090;SDS011;6611;52.604;13.438;2024-03-23T03:46:53;12.13;;;2.93;;
13090;SDS011;6611;52.604;13.438;2024-03-23T03:51:56;9.43;;;3.10;;
13090;SDS011;6611;52.604;13.438;2024-03-23T03:56:59;8.53;;;2.60;;
13090;SDS011;6611;52.604;13.438;2024-03-23T04:02:01;5.80;;;2.50;;
13090;SDS011;6611;52.604;13.438;2024-03-23T04:07:02;7.07;;;2.33;;
13090;SDS011;6611;52.604;13.438;2024-03-23T04:12:07;4.40;;;1.83;;
13090;SDS011;6611;52.604;13.438;2024-03-23T04:17:08;5.40;;;1.80;;
13090;SDS011;6611;52.604;13.438;2024-03-23T04:22:10;3.13;;;1.80;;
13090;SDS011;6611;52.604;13.438;2024-03-23T04:27:13;7.57;;;2.07;;
13090;SDS011;6611;52.604;13.438;2024-03-23T04:32:14;6.20;;;2.20;;
13090;SDS011;6611;52.604;13.438;2024-03-23T04:37:18;6.30;;;1.90;;
13090;SDS011;6611;52.604;13.438;2024-03-23T04:42:22;2.70;;;1.20;;
13090;SDS011;6611;52.604;13.438;2024-03-23T04:47:23;4.60;;;1.43;;
13090;SDS011;6611;52.604;13.438;2024-03-23T04:52:25;2.90;;;1.67;;
13090;SDS011;6611;52.604;13.438;2024-03-23T04:57:28;6.27;;;1.80;;
13090;SDS011;6611;52.604;13.438;2024-03-23T05:02:31;3.07;;;1.40;;
13090;SDS011;6611;52.604;13.438;2024-03-23T05:07:34;1.60;;;1.20;;
13090;SDS011;6611;52.604;13.438;2024-03-23T05:12:37;3.53;;;1.53;;
13090;SDS011;6611;52.604;13.438;2024-03-23T05:17:39;5.57;;;1.53;;
13090;SDS011;6611;52.604;13.438;2024-03-23T05:22:41;4.40;;;1.43;;
13090;SDS011;6611;52.604;13.438;2024-03-23T05:27:44;4.13;;;1.30;;
13090;SDS011;6611;52.604;13.438;2024-03-23T05:32:46;4.33;;;1.60;;
13090;SDS011;6611;52.604;13.438;2024-03-23T05:37:47;3.00;;;1.40;;
13090;SDS011;6611;52.604;13.438;2024-03-23T05:42:50;3.97;;;1.70;;
13090;SDS011;6611;52.604;13.438;2024-03-23T05:47:53;3.53;;;1.70;;
13090;SDS011;6611;52.604;13.438;2024-03-23T05:52:56;5.00;;;1.53;;
13090;SDS011;6611;52.604;13.438;2024-03-23T05:57:59;5.23;;;2.10;;
13090;SDS011;6611;52.604;13.438;2024-03-23T06:03:01;4.90;;;2.00;;
13090;SDS011;6611;52.604;13.438;2024-03-23T06:08:03;6.23;;;2.20;;
13090;SDS011;6611;52.604;13.438;2024-03-23T06:13:06;6.63;;;2.03;;
13090;SDS011;6611;52.604;13.438;2024-03-23T06:18:08;4.53;;;1.90;;
13090;SDS011;6611;52.604;13.438;2024-03-23T06:23:10;7.63;;;1.80;;
13090;SDS011;6611;52.604;13.438;2024-03-23T06:28:14;7.20;;;2.27;;
13090;SDS011;6611;52.604;13.438;2024-03-23T06:33:15;4.90;;;2.17;;
13090;SDS011;6611;52.604;13.438;2024-03-23T06:38:17;5.73;;;1.83;;
13090;SDS011;6611;52.604;13.438;2024-03-23T06:43:23;7.43;;;2.43;;
13090;SDS011;6611;52.604;13.438;2024-03-23T06:48:25;4.43;;;2.30;;
13090;SDS011;6611;52.604;13.438;2024-03-23T06:53:27;9.37;;;3.03;;
13090;SDS011;6611;52.604;13.438;2024-03-23T06:58:30;7.43;;;2.53;;
13090;SDS011;6611;52.604;13.438;2024-03-23T07:03:33;9.63;;;2.73;;
13090;SDS011;6611;52.604;13.438;2024-03-23T07:08:34;6.30;;;2.13;;
13090;SDS011;6611;52.604;13.438;2024-03-23T07:13:37;8.63;;;2.47;;
13090;SDS011;6611;52.604;13.438;2024-03-23T07:18:39;6.33;;;2.43;;
13090;SDS011;6611;52.604;13.438;2024-03-23T07:23:41;5.10;;;2.07;;
13090;SDS011;6611;52.604;13.438;2024-03-23T07:28:46;10.83;;;2.70;;
13090;SDS011;6611;52.604;13.438;2024-03-23T07:33:49;7.07;;;3.00;;
13090;SDS011;6611;52.604;13.438;2024-03-23T07:38:51;6.70;;;2.67;;
13090;SDS011;6611;52.604;13.438;2024-03-23T07:43:54;4.07;;;2.10;;
13090;SDS011;6611;52.604;13.438;2024-03-23T07:48:56;4.90;;;1.40;;
13090;SDS011;6611;52.604;13.438;2024-03-23T07:53:58;6.50;;;2.10;;
13090;SDS011;6611;52.604;13.438;2024-03-23T07:59:01;5.37;;;2.30;;
13090;SDS011;6611;52.604;13.438;2024-03-23T08:04:03;3.17;;;1.60;;
13090;SDS011;6611;52.604;13.438;2024-03-23T08:09:06;5.20;;;1.80;;
13090;SDS011;6611;52.604;13.438;2024-03-23T08:14:09;4.57;;;2.17;;
13090;SDS011;6611;52.604;13.438;2024-03-23T08:19:10;6.60;;;2.17;;
13090;SDS011;6611;52.604;13.438;2024-03-23T08:24:12;4.73;;;1.53;;
13090;SDS011;6611;52.604;13.438;2024-03-23T08:29:15;6.97;;;2.10;;
13090;SDS011;6611;52.604;13.438;2024-03-23T08:34:17;4.90;;;1.53;;
13090;SDS011;6611;52.604;13.438;2024-03-23T08:39:18;3.43;;;1.40;;
13090;SDS011;6611;52.604;13.438;2024-03-23T08:44:21;6.33;;;1.67;;
13090;SDS011;6611;52.604;13.438;2024-03-23T08:49:23;5.07;;;2.20;;
13090;SDS011;6611;52.604;13.438;2024-03-23T08:54:25;5.03;;;2.13;;
13090;SDS011;6611;52.604;13.438;2024-03-23T08:59:29;5.57;;;2.10;;
13090;SDS011;6611;52.604;13.438;2024-03-23T09:04:30;3.47;;;2.30;;
13090;SDS011;6611;52.604;13.438;2024-03-23T09:09:32;6.33;;;1.93;;
13090;SDS011;6611;52.604;13.438;2024-03-23T09:14:35;4.13;;;1.20;;
13090;SDS011;6611;52.604;13.438;2024-03-23T09:19:37;5.97;;;1.60;;
13090;SDS011;6611;52.604;13.438;2024-03-23T09:24:38;5.57;;;1.80;;
13090;SDS011;6611;52.604;13.438;2024-03-23T09:29:44;3.60;;;1.47;;
13090;SDS011;6611;52.604;13.438;2024-03-23T09:34:46;2.93;;;0.90;;
13090;SDS011;6611;52.604;13.438;2024-03-23T09:39:47;3.33;;;1.20;;
13090;SDS011;6611;52.604;13.438;2024-03-23T09:44:51;2.60;;;1.30;;
13090;SDS011;6611;52.604;13.438;2024-03-23T09:49:53;3.63;;;1.47;;
13090;SDS011;6611;52.604;13.438;2024-03-23T09:54:55;3.67;;;1.60;;
13090;SDS011;6611;52.604;13.438;2024-03-23T09:59:58;3.37;;;1.20;;
13090;SDS011;6611;52.604;13.438;2024-03-23T10:05:00;3.67;;;1.53;;
13090;SDS011;6611;52.604;13.438;2024-03-23T10:10:08;2.00;;;1.00;;
13090;SDS011;6611;52.604;13.438;2024-03-23T10:15:17;3.20;;;1.50;;
13090;SDS011;6611;52.604;13.438;2024-03-23T10:20:20;3.00;;;1.77;;
13090;SDS011;6611;52.604;13.438;2024-03-23T10:25:23;4.43;;;1.57;;
13090;SDS011;6611;52.604;13.438;2024-03-23T10:30:26;2.63;;;1.30;;
13090;SDS011;6611;52.604;13.438;2024-03-23T10:35:28;3.13;;;1.90;;
13090;SDS011;6611;52.604;13.438;2024-03-23T10:40:30;5.20;;;1.97;;
13090;SDS011;6611;52.604;13.438;2024-03-23T10:45:33;4.07;;;1.60;;
13090;SDS011;6611;52.604;13.438;2024-03-23T10:50:34;3.50;;;1.60;;
13090;SDS011;6611;52.604;13.438;2024-03-23T10:55:36;5.47;;;1.90;;
13090;SDS011;6611;52.604;13.438;2024-03-23T11:00:39;5.23;;;1.97;;
13090;SDS011;6611;52.604;13.438;2024-03-23T11:05:46;4.07;;;1.97;;
13090;SDS011;6611;52.604;13.438;2024-03-23T11:10:47;2.93;;;1.87;;
13090;SDS011;6611;52.604;13.438;2024-03-23T11:15:53;4.77;;;2.10;;
13090;SDS011;6611;52.604;13.438;2024-03-23T11:20:55;7.27;;;2.20;;
13090;SDS011;6611;52.604;13.438;2024-03-23T11:25:56;5.67;;;2.50;;
13090;SDS011;6611;52.604;13.438;2024-03-23T11:30:59;7.03;;;2.20;;
13090;SDS011;6611;52.604;13.438;2024-03-23T11:36:01;3.23;;;1.60;;
13090;SDS011;6611;52.604;13.438;2024-03-23T11:41:03;9.53;;;2.37;;
13090;SDS011;6611;52.604;13.438;2024-03-23T11:46:06;3.60;;;1.87;;
13090;SDS011;6611;52.604;13.438;2024-03-23T11:51:08;5.67;;;2.30;;
13090;SDS011;6611;52.604;13.438;2024-03-23T11:56:11;7.20;;;2.40;;
13090;SDS011;6611;52.604;13.438;2024-03-23T12:01:14;7.30;;;2.20;;
13090;SDS011;6611;52.604;13.438;2024-03-23T12:06:19;8.13;;;1.97;;
13090;SDS011;6611;52.604;13.438;2024-03-23T12:11:21;5.47;;;2.03;;
13090;SDS011;6611;52.604;13.438;2024-03-23T12:16:25;7.50;;;2.00;;
13090;SDS011;6611;52.604;13.438;2024-03-23T12:21:27;3.90;;;2.27;;
13090;SDS011;6611;52.604;13.438;2024-03-23T12:26:29;7.63;;;2.30;;
13090;SDS011;6611;52.604;13.438;2024-03-23T12:31:32;4.53;;;2.07;;
13090;SDS011;6611;52.604;13.438;2024-03-23T12:36:33;5.87;;;2.47;;
13090;SDS011;6611;52.604;13.438;2024-03-23T12:41:35;8.27;;;2.90;;
13090;SDS011;6611;52.604;13.438;2024-03-23T12:46:38;5.27;;;2.20;;
13090;SDS011;6611;52.604;13.438;2024-03-23T12:51:44;4.60;;;2.17;;
13090;SDS011;6611;52.604;13.438;2024-03-23T12:56:54;5.13;;;2.20;;
13090;SDS011;6611;52.604;13.438;2024-03-23T13:01:58;4.97;;;1.57;;
13090;SDS011;6611;52.604;13.438;2024-03-23T13:07:00;9.80;;;2.10;;
13090;SDS011;6611;52.604;13.438;2024-03-23T13:12:01;4.23;;;1.67;;
13090;SDS011;6611;52.604;13.438;2024-03-23T13:17:05;5.03;;;1.40;;
13090;SDS011;6611;52.604;13.438;2024-03-23T13:22:07;4.33;;;1.67;;
13090;SDS011;6611;52.604;13.438;2024-03-23T13:27:11;4.33;;;1.77;;
13090;SDS011;6611;52.604;13.438;2024-03-23T13:32:14;2.93;;;1.70;;
13090;SDS011;6611;52.604;13.438;2024-03-23T13:37:16;3.60;;;1.87;;
13090;SDS011;6611;52.604;13.438;2024-03-23T13:42:18;6.03;;;2.00;;
13090;SDS011;6611;52.604;13.438;2024-03-23T13:47:21;5.37;;;2.50;;
13090;SDS011;6611;52.604;13.438;2024-03-23T13:52:22;7.00;;;2.70;;
13090;SDS011;6611;52.604;13.438;2024-03-23T13:57:25;5.27;;;2.23;;
13090;SDS011;6611;52.604;13.438;2024-03-23T14:02:28;5.63;;;2.23;;
13090;SDS011;6611;52.604;13.438;2024-03-23T14:07:30;6.27;;;2.37;;
13090;SDS011;6611;52.604;13.438;2024-03-23T14:12:33;8.23;;;2.50;;
13090;SDS011;6611;52.604;13.438;2024-03-23T14:17:36;12.70;;;2.50;;
13090;SDS011;6611;52.604;13.438;2024-03-23T14:22:38;4.20;;;1.90;;
13090;SDS011;6611;52.604;13.438;2024-03-23T14:27:42;3.97;;;1.70;;
13090;SDS011;6611;52.604;13.438;2024-03-23T14:32:46;2.87;;;1.40;;
13090;SDS011;6611;52.604;13.438;2024-03-23T14:37:48;4.80;;;1.60;;
13090;SDS011;6611;52.604;13.438;2024-03-23T14:42:49;3.63;;;1.70;;
13090;SDS011;6611;52.604;13.438;2024-03-23T14:47:52;4.03;;;1.63;;
13090;SDS011;6611;52.604;13.438;2024-03-23T14:52:55;2.33;;;1.20;;
13090;SDS011;6611;52.604;13.438;2024-03-23T14:57:56;3.97;;;1.40;;
13090;SDS011;6611;52.604;13.438;2024-03-23T15:02:59;2.53;;;1.17;;
13090;SDS011;6611;52.604;13.438;2024-03-23T15:08:01;3.00;;;1.80;;
13090;SDS011;6611;52.604;13.438;2024-03-23T15:13:04;4.53;;;1.90;;
13090;SDS011;6611;52.604;13.438;2024-03-23T15:18:07;3.07;;;1.83;;
13090;SDS011;6611;52.604;13.438;2024-03-23T15:23:09;5.43;;;2.43;;
13090;SDS011;6611;52.604;13.438;2024-03-23T15:28:10;5.47;;;2.60;;
13090;SDS011;6611;52.604;13.438;2024-03-23T15:33:13;4.87;;;2.30;;
13090;SDS011;6611;52.604;13.438;2024-03-23T15:38:15;4.17;;;1.93;;
13090;SDS011;6611;52.604;13.438;2024-03-23T15:43:19;12.80;;;3.40;;
13090;SDS011;6611;52.604;13.438;2024-03-23T15:48:22;4.67;;;2.27;;
13090;SDS011;6611;52.604;13.438;2024-03-23T15:53:24;5.20;;;2.53;;
13090;SDS011;6611;52.604;13.438;2024-03-23T15:58:26;4.47;;;2.37;;
13090;SDS011;6611;52.604;13.438;2024-03-23T16:03:30;4.17;;;2.20;;
13090;SDS011;6611;52.604;13.438;2024-03-23T16:08:33;4.57;;;2.20;;
13090;SDS011;6611;52.604;13.438;2024-03-23T16:13:35;4.30;;;2.07;;
13090;SDS011;6611;52.604;13.438;2024-03-23T16:18:38;4.50;;;1.90;;
13090;SDS011;6611;52.604;13.438;2024-03-23T16:23:43;3.27;;;1.57;;
13090;SDS011;6611;52.604;13.438;2024-03-23T16:28:46;2.57;;;1.60;;
13090;SDS011;6611;52.604;13.438;2024-03-23T16:33:50;4.43;;;1.60;;
13090;SDS011;6611;52.604;13.438;2024-03-23T16:38:52;3.07;;;1.60;;
13090;SDS011;6611;52.604;13.438;2024-03-23T16:43:54;3.63;;;1.53;;
13090;SDS011;6611;52.604;13.438;2024-03-23T16:48:59;2.67;;;1.70;;
13090;SDS011;6611;52.604;13.438;2024-03-23T16:54:05;4.53;;;1.30;;
13090;SDS011;6611;52.604;13.438;2024-03-23T16:59:07;2.23;;;1.67;;
13090;SDS011;6611;52.604;13.438;2024-03-23T17:04:11;5.67;;;1.67;;
13090;SDS011;6611;52.604;13.438;2024-03-23T17:09:13;3.67;;;1.50;;
13090;SDS011;6611;52.604;13.438;2024-03-23T17:14:16;2.07;;;1.80;;
13090;SDS011;6611;52.604;13.438;2024-03-23T17:19:19;4.23;;;1.60;;
13090;SDS011;6611;52.604;13.438;2024-03-23T17:24:22;3.90;;;2.00;;
13090;SDS011;6611;52.604;13.438;2024-03-23T17:29:24;3.03;;;1.87;;
13090;SDS011;6611;52.604;13.438;2024-03-23T17:34:27;4.90;;;2.23;;
13090;SDS011;6611;52.604;13.438;2024-03-23T17:39:29;5.17;;;1.83;;
13090;SDS011;6611;52.604;13.438;2024-03-23T17:44:32;4.37;;;2.47;;
13090;SDS011;6611;52.604;13.438;2024-03-23T17:49:35;4.60;;;2.57;;
13090;SDS011;6611;52.604;13.438;2024-03-23T17:54:38;4.67;;;3.00;;
13090;SDS011;6611;52.604;13.438;2024-03-23T17:59:40;3.57;;;2.90;;
13090;SDS011;6611;52.604;13.438;2024-03-23T18:04:43;8.20;;;2.83;;
13090;SDS011;6611;52.604;13.438;2024-03-23T18:09:45;6.30;;;2.70;;
13090;SDS011;6611;52.604;13.438;2024-03-23T18:14:46;3.73;;;2.40;;
13090;SDS011;6611;52.604;13.438;2024-03-23T18:19:49;5.07;;;2.90;;
13090;SDS011;6611;52.604;13.438;2024-03-23T18:24:51;3.47;;;1.63;;
13090;SDS011;6611;52.604;13.438;2024-03-23T18:29:54;3.03;;;1.60;;
13090;SDS011;6611;52.604;13.438;2024-03-23T18:34:57;2.83;;;1.83;;
13090;SDS011;6611;52.604;13.438;2024-03-23T18:39:59;2.93;;;1.50;;
13090;SDS011;6611;52.604;13.438;2024-03-23T18:45:00;2.47;;;1.33;;
13090;SDS011;6611;52.604;13.438;2024-03-23T18:50:04;3.23;;;1.30;;
13090;SDS011;6611;52.604;13.438;2024-03-23T18:55:06;4.47;;;1.50;;
13090;SDS011;6611;52.604;13.438;2024-03-23T19:00:12;7.10;;;1.40;;
13090;SDS011;6611;52.604;13.438;2024-03-23T19:05:15;6.67;;;1.27;;
13090;SDS011;6611;52.604;13.438;2024-03-23T19:10:17;2.30;;;1.40;;
13090;SDS011;6611;52.604;13.438;2024-03-23T19:15:20;3.90;;;2.90;;
13090;SDS011;6611;52.604;13.438;2024-03-23T19:20:24;4.30;;;1.83;;
13090;SDS011;6611;52.604;13.438;2024-03-23T19:25:26;3.93;;;1.50;;
13090;SDS011;6611;52.604;13.438;2024-03-23T19:30:28;1.77;;;1.20;;
13090;SDS011;6611;52.604;13.438;2024-03-23T19:35:31;2.73;;;1.10;;
13090;SDS011;6611;52.604;13.438;2024-03-23T19:40:33;2.27;;;1.30;;
13090;SDS011;6611;52.604;13.438;2024-03-23T19:45:35;3.47;;;1.23;;
13090;SDS011;6611;52.604;13.438;2024-03-23T19:50:38;3.53;;;1.63;;
13090;SDS011;6611;52.604;13.438;2024-03-23T19:55:39;6.20;;;2.20;;
13090;SDS011;6611;52.604;13.438;2024-03-23T20:00:41;5.10;;;1.90;;
13090;SDS011;6611;52.604;13.438;2024-03-23T20:05:44;2.80;;;2.30;;
13090;SDS011;6611;52.604;13.438;2024-03-23T20:10:46;2.27;;;1.67;;
13090;SDS011;6611;52.604;13.438;2024-03-23T20:15:51;4.23;;;2.43;;
13090;SDS011;6611;52.604;13.438;2024-03-23T20:20:55;3.60;;;2.00;;
13090;SDS011;6611;52.604;13.438;2024-03-23T20:25:58;7.33;;;4.63;;
13090;SDS011;6611;52.604;13.438;2024-03-23T20:31:01;5.70;;;3.17;;
13090;SDS011;6611;52.604;13.438;2024-03-23T20:36:07;4.20;;;2.43;;
13090;SDS011;6611;52.604;13.438;2024-03-23T20:41:09;4.43;;;3.37;;
13090;SDS011;6611;52.604;13.438;2024-03-23T20:46:11;3.10;;;2.03;;
13090;SDS011;6611;52.604;13.438;2024-03-23T20:51:14;3.13;;;1.90;;
13090;SDS011;6611;52.604;13.438;2024-03-23T20:56:17;3.97;;;1.63;;
13090;SDS011;6611;52.604;13.438;2024-03-23T21:01:19;2.93;;;2.63;;
13090;SDS011;6611;52.604;13.438;2024-03-23T21:06:23;3.57;;;2.77;;
13090;SDS011;6611;52.604;13.438;2024-03-23T21:11:25;3.23;;;2.10;;
13090;SDS011;6611;52.604;13.438;2024-03-23T21:16:27;3.40;;;2.27;;
13090;SDS011;6611;52.604;13.438;2024-03-23T21:21:31;3.83;;;1.93;;
13090;SDS011;6611;52.604;13.438;2024-03-23T21:26:33;4.07;;;2.47;;
13090;SDS011;6611;52.604;13.438;2024-03-23T21:31:35;5.60;;;2.80;;
13090;SDS011;6611;52.604;13.438;2024-03-23T21:36:38;3.20;;;2.77;;
13090;SDS011;6611;52.604;13.438;2024-03-23T21:41:40;3.73;;;2.70;;
13090;SDS011;6611;52.604;13.438;2024-03-23T21:46:43;6.40;;;2.63;;
13090;SDS011;6611;52.604;13.438;2024-03-23T21:51:46;4.30;;;2.70;;
13090;SDS011;6611;52.604;13.438;2024-03-23T21:56:47;3.90;;;2.60;;
13090;SDS011;6611;52.604;13.438;2024-03-23T22:01:49;3.77;;;2.40;;
13090;SDS011;6611;52.604;13.438;2024-03-23T22:06:52;2.97;;;2.30;;
13090;SDS011;6611;52.604;13.438;2024-03-23T22:11:54;4.77;;;2.70;;
13090;SDS011;6611;52.604;13.438;2024-03-23T22:16:56;5.67;;;2.17;;
13090;SDS011;6611;52.604;13.438;2024-03-23T22:21:59;5.07;;;3.07;;
13090;SDS011;6611;52.604;13.438;2024-03-23T22:27:01;5.97;;;3.10;;
13090;SDS011;6611;52.604;13.438;2024-03-23T22:32:03;3.03;;;2.40;;
13090;SDS011;6611;52.604;13.438;2024-03-23T22:37:06;4.93;;;2.40;;
13090;SDS011;6611;52.604;13.438;2024-03-23T22:42:08;5.50;;;3.10;;
13090;SDS011;6611;52.604;13.438;2024-03-23T22:47:10;4.33;;;2.23;;
13090;SDS011;6611;52.604;13.438;2024-03-23T22:52:13;4.87;;;3.10;;
13090;SDS011;6611;52.604;13.438;2024-03-23T22:57:15;4.13;;;2.60;;
13090;SDS011;6611;52.604;13.438;2024-03-23T23:02:16;4.87;;;2.73;;
13090;SDS011;6611;52.604;13.438;2024-03-23T23:07:20;4.07;;;2.60;;
13090;SDS011;6611;52.604;13.438;2024-03-23T23:12:22;3.87;;;2.63;;
13090;SDS011;6611;52.604;13.438;2024-03-23T23:17:24;6.63;;;2.90;;
13090;SDS011;6611;52.604;13.438;2024-03-23T23:22:27;3.63;;;2.87;;
13090;SDS011;6611;52.604;13.438;2024-03-23T23:27:28;6.73;;;3.00;;
13090;SDS011;6611;52.604;13.438;2024-03-23T23:32:30;4.73;;;3.27;;
13090;SDS011;6611;52.604;13.438;2024-03-23T23:37:33;6.37;;;3.00;;
13090;SDS011;6611;52.604;13.438;2024-03-23T23:42:35;3.10;;;2.80;;
13090;SDS011;6611;52.604;13.438;2024-03-23T23:47:37;3.57;;;3.13;;
13090;SDS011;6611;52.604;13.438;2024-03-23T23:52:40;5.00;;;3.30;;
13090;SDS011;6611;52.604;13.438;2024-03-23T23:57:43;5.60;;;3.30;;
